createdAt,value
2022-08-31T00:01:47.458Z,20.34
2022-08-31T00:03:52.593Z,20.37
2022-08-31T00:06:00.694Z,20.37
2022-08-31T00:08:06.026Z,20.37
2022-08-31T00:10:15.735Z,20.36
2022-08-31T00:12:21.515Z,20.34
2022-08-31T00:14:27.321Z,20.35
2022-08-31T00:16:34.638Z,20.34
2022-08-31T00:18:43.377Z,20.30
2022-08-31T00:20:48.903Z,20.29
2022-08-31T00:22:54.005Z,20.26
2022-08-31T00:25:03.019Z,20.26
2022-08-31T00:27:08.256Z,20.26
2022-08-31T00:29:13.728Z,20.26
2022-08-31T00:31:19.017Z,20.24
2022-08-31T00:33:28.156Z,20.23
2022-08-31T00:35:39.302Z,20.24
2022-08-31T00:37:46.876Z,20.23
2022-08-31T00:39:51.851Z,20.21
2022-08-31T00:42:00.170Z,20.21
2022-08-31T00:44:09.770Z,20.22
2022-08-31T00:46:21.556Z,20.20
2022-08-31T00:48:26.459Z,20.17
2022-08-31T00:50:33.748Z,20.14
2022-08-31T00:52:56.294Z,20.13
2022-08-31T00:55:06.352Z,20.13
2022-08-31T00:57:12.252Z,20.10
2022-08-31T00:59:21.261Z,20.09
2022-08-31T01:01:26.611Z,20.08
2022-08-31T01:03:35.385Z,20.07
2022-08-31T01:05:46.533Z,20.02
2022-08-31T01:07:53.151Z,19.98
2022-08-31T01:09:59.011Z,19.95
2022-08-31T01:12:08.171Z,19.94
2022-08-31T01:14:15.316Z,19.94
2022-08-31T01:16:26.701Z,19.92
2022-08-31T01:18:33.602Z,19.89
2022-08-31T01:20:49.006Z,19.88
2022-08-31T01:23:13.093Z,19.85
2022-08-31T01:25:20.174Z,19.85
2022-08-31T01:27:28.640Z,19.84
2022-08-31T01:29:37.066Z,19.79
2022-08-31T01:31:48.780Z,19.77
2022-08-31T01:33:56.155Z,19.74
2022-08-31T01:36:04.726Z,19.71
2022-08-31T01:38:09.944Z,19.66
2022-08-31T01:40:19.864Z,19.66
2022-08-31T01:42:30.924Z,19.64
2022-08-31T01:44:39.233Z,19.63
2022-08-31T01:46:44.960Z,19.63
2022-08-31T01:48:50.874Z,19.62
2022-08-31T01:50:56.855Z,19.61
2022-08-31T01:53:01.752Z,19.61
2022-08-31T01:55:11.521Z,19.59
2022-08-31T01:57:16.459Z,19.57
2022-08-31T01:59:53.134Z,19.56
2022-08-31T02:02:21.141Z,19.55
2022-08-31T02:04:28.159Z,19.54
2022-08-31T02:06:35.560Z,19.52
2022-08-31T02:08:41.145Z,19.52
2022-08-31T02:10:46.834Z,19.50
2022-08-31T02:12:53.734Z,19.48
2022-08-31T02:15:09.342Z,19.46
2022-08-31T02:17:15.842Z,19.44
2022-08-31T02:19:20.985Z,19.42
2022-08-31T02:21:26.871Z,19.39
2022-08-31T02:23:35.674Z,19.37
2022-08-31T02:25:44.650Z,19.35
2022-08-31T02:27:50.179Z,19.33
2022-08-31T02:29:58.901Z,19.33
2022-08-31T02:32:04.928Z,19.32
2022-08-31T02:34:10.334Z,19.30
2022-08-31T02:36:18.637Z,19.28
2022-08-31T02:38:25.881Z,19.29
2022-08-31T02:40:33.769Z,19.26
2022-08-31T02:42:52.390Z,19.26
2022-08-31T02:45:02.710Z,19.24
2022-08-31T02:47:07.804Z,19.23
2022-08-31T02:49:12.765Z,19.22
2022-08-31T02:51:17.841Z,19.21
2022-08-31T02:53:25.126Z,19.21
2022-08-31T02:55:34.152Z,19.21
2022-08-31T02:57:39.375Z,19.21
2022-08-31T02:59:45.024Z,19.20
2022-08-31T03:01:50.048Z,19.22
2022-08-31T03:03:55.797Z,19.21
2022-08-31T03:06:01.336Z,19.20
2022-08-31T03:08:07.221Z,19.21
2022-08-31T03:10:16.510Z,19.20
2022-08-31T03:12:21.629Z,19.19
2022-08-31T03:14:26.783Z,19.18
2022-08-31T03:16:36.025Z,19.17
2022-08-31T03:18:44.157Z,19.15
2022-08-31T03:20:49.972Z,19.14
2022-08-31T03:22:55.309Z,19.14
2022-08-31T03:25:00.732Z,19.14
2022-08-31T03:27:08.665Z,19.12
2022-08-31T03:29:13.927Z,19.10
2022-08-31T03:31:38.252Z,19.09
2022-08-31T03:33:43.141Z,19.08
2022-08-31T03:35:48.903Z,19.07
2022-08-31T03:37:57.579Z,19.06
2022-08-31T03:40:03.249Z,19.04
2022-08-31T03:42:11.193Z,19.02
2022-08-31T03:44:16.094Z,18.99
2022-08-31T03:46:23.621Z,18.98
2022-08-31T03:48:32.349Z,18.96
2022-08-31T03:50:38.126Z,18.95
2022-08-31T03:52:50.579Z,18.94
2022-08-31T03:54:57.013Z,18.94
2022-08-31T03:57:02.379Z,18.93
2022-08-31T03:59:10.592Z,18.92
2022-08-31T04:01:35.735Z,18.91
2022-08-31T04:04:17.278Z,18.92
2022-08-31T04:06:44.890Z,18.93
2022-08-31T04:09:19.596Z,18.92
2022-08-31T04:11:44.894Z,18.91
2022-08-31T04:14:15.488Z,18.90
2022-08-31T04:16:22.867Z,18.90
2022-08-31T04:18:48.717Z,18.87
2022-08-31T04:20:53.805Z,18.88
2022-08-31T04:22:59.071Z,18.89
2022-08-31T04:25:10.908Z,18.89
2022-08-31T04:27:16.206Z,18.92
2022-08-31T04:29:21.769Z,18.97
2022-08-31T04:31:28.257Z,19.02
2022-08-31T04:33:34.607Z,19.03
2022-08-31T04:35:43.224Z,19.04
2022-08-31T04:37:48.146Z,19.05
2022-08-31T04:39:54.283Z,19.06
2022-08-31T04:42:00.176Z,19.06
2022-08-31T04:44:06.993Z,19.04
2022-08-31T04:46:12.304Z,19.02
2022-08-31T04:48:17.479Z,19.01
2022-08-31T04:50:23.013Z,19.01
2022-08-31T04:52:49.777Z,19.01
2022-08-31T04:55:10.786Z,19.00
2022-08-31T04:57:16.106Z,19.01
2022-08-31T04:59:24.584Z,19.04
2022-08-31T05:01:45.555Z,19.03
2022-08-31T05:04:13.477Z,18.99
2022-08-31T05:06:23.284Z,18.95
2022-08-31T05:08:31.326Z,18.91
2022-08-31T05:10:40.584Z,18.86
2022-08-31T05:12:45.911Z,18.81
2022-08-31T05:14:51.947Z,18.75
2022-08-31T05:17:00.983Z,18.75
2022-08-31T05:19:06.927Z,18.76
2022-08-31T05:21:14.403Z,18.80
2022-08-31T05:23:22.523Z,18.83
2022-08-31T05:25:27.894Z,18.88
2022-08-31T05:27:32.844Z,18.93
2022-08-31T05:29:37.945Z,18.99
2022-08-31T05:32:11.640Z,19.05
2022-08-31T05:34:21.078Z,19.15
2022-08-31T05:36:26.209Z,19.26
2022-08-31T05:38:31.153Z,19.39
2022-08-31T05:40:38.952Z,19.49
2022-08-31T05:42:43.911Z,19.57
2022-08-31T05:44:49.001Z,19.62
2022-08-31T05:46:57.484Z,19.69
2022-08-31T05:49:11.910Z,19.76
2022-08-31T05:51:22.907Z,19.82
2022-08-31T05:53:28.313Z,19.90
2022-08-31T05:55:33.159Z,19.94
2022-08-31T05:57:40.661Z,19.97
2022-08-31T05:59:51.548Z,20.00
2022-08-31T06:01:57.713Z,20.06
2022-08-31T06:04:08.735Z,20.11
2022-08-31T06:06:14.218Z,20.14
2022-08-31T06:08:27.362Z,20.17
2022-08-31T06:10:35.362Z,20.19
2022-08-31T06:12:40.715Z,20.17
2022-08-31T06:14:47.939Z,20.16
2022-08-31T06:16:57.846Z,20.14
2022-08-31T06:19:03.311Z,20.15
2022-08-31T06:21:17.096Z,20.15
2022-08-31T06:23:22.100Z,20.16
2022-08-31T06:25:27.949Z,20.15
2022-08-31T06:27:39.273Z,20.19
2022-08-31T06:29:45.604Z,20.22
2022-08-31T06:31:59.234Z,20.24
2022-08-31T06:34:06.599Z,20.30
2022-08-31T06:36:35.671Z,20.38
2022-08-31T06:39:12.603Z,20.42
2022-08-31T06:41:36.219Z,20.45
2022-08-31T06:44:14.106Z,20.51
2022-08-31T06:46:36.417Z,20.57
2022-08-31T06:48:53.720Z,20.62
2022-08-31T06:50:59.882Z,20.66
2022-08-31T06:53:05.245Z,20.70
2022-08-31T06:55:33.924Z,20.68
2022-08-31T06:57:57.358Z,20.71
2022-08-31T07:00:33.843Z,20.78
2022-08-31T07:02:54.739Z,20.80
2022-08-31T07:05:02.800Z,20.77
2022-08-31T07:07:11.620Z,20.81
2022-08-31T07:09:18.099Z,20.85
2022-08-31T07:11:26.685Z,20.90
2022-08-31T07:13:31.947Z,20.93
2022-08-31T07:15:40.881Z,20.96
2022-08-31T07:17:48.811Z,20.98
2022-08-31T07:19:54.006Z,21.03
2022-08-31T07:22:01.674Z,21.06
2022-08-31T07:24:08.073Z,21.09
2022-08-31T07:26:15.869Z,21.13
2022-08-31T07:28:21.654Z,21.22
2022-08-31T07:30:33.238Z,21.30
2022-08-31T07:32:39.462Z,21.43
2022-08-31T07:34:55.945Z,21.54
2022-08-31T07:37:05.068Z,21.65
2022-08-31T07:39:10.844Z,21.74
2022-08-31T07:41:21.228Z,21.77
2022-08-31T07:43:28.579Z,21.78
2022-08-31T07:45:39.429Z,21.82
2022-08-31T07:47:45.366Z,21.88
2022-08-31T07:49:53.580Z,21.89
2022-08-31T07:52:19.318Z,21.90
2022-08-31T07:55:03.142Z,21.89
2022-08-31T07:57:19.265Z,21.87
2022-08-31T07:59:25.112Z,21.87
2022-08-31T08:01:31.464Z,21.93
2022-08-31T08:03:41.978Z,22.01
2022-08-31T08:06:06.425Z,22.09
2022-08-31T08:08:22.208Z,22.12
2022-08-31T08:10:52.734Z,22.21
2022-08-31T08:13:21.742Z,22.32
2022-08-31T08:15:35.635Z,22.41
2022-08-31T08:17:40.948Z,22.47
2022-08-31T08:19:46.968Z,22.47
2022-08-31T08:21:51.841Z,22.52
2022-08-31T08:24:02.284Z,22.61
2022-08-31T08:26:48.943Z,22.68
2022-08-31T08:29:15.342Z,22.80
2022-08-31T08:31:22.250Z,22.88
2022-08-31T08:33:27.660Z,22.98
2022-08-31T08:35:36.012Z,23.04
2022-08-31T08:37:57.891Z,23.11
2022-08-31T08:40:13.410Z,23.18
2022-08-31T08:42:23.156Z,23.21
2022-08-31T08:44:30.799Z,23.23
2022-08-31T08:46:39.959Z,23.19
2022-08-31T08:48:55.664Z,23.27
2022-08-31T08:51:13.137Z,23.43
2022-08-31T08:53:33.743Z,23.46
2022-08-31T08:56:23.215Z,23.51
2022-08-31T08:58:27.930Z,23.49
2022-08-31T09:00:32.821Z,23.50
2022-08-31T09:02:47.213Z,23.56
2022-08-31T09:05:15.687Z,23.71
2022-08-31T09:08:20.830Z,23.81
2022-08-31T09:10:34.563Z,23.80
2022-08-31T09:12:48.495Z,23.81
2022-08-31T09:15:14.515Z,23.83
2022-08-31T09:17:35.331Z,23.86
2022-08-31T09:19:40.496Z,23.90
2022-08-31T09:21:53.702Z,23.91
2022-08-31T09:24:08.048Z,23.90
2022-08-31T09:26:33.127Z,23.87
2022-08-31T09:28:47.313Z,23.83
2022-08-31T09:30:53.198Z,23.80
2022-08-31T09:32:58.752Z,23.87
2022-08-31T09:35:14.850Z,23.96
2022-08-31T09:37:22.654Z,24.04
2022-08-31T09:39:37.285Z,24.07
2022-08-31T09:41:42.405Z,24.12
2022-08-31T09:43:47.513Z,24.17
2022-08-31T09:46:02.709Z,24.26
2022-08-31T09:48:11.556Z,24.34
2022-08-31T09:50:37.592Z,24.48
2022-08-31T09:52:42.339Z,24.55
2022-08-31T09:54:55.946Z,24.54
2022-08-31T09:57:03.728Z,24.57
2022-08-31T09:59:09.936Z,24.66
2022-08-31T10:01:19.236Z,24.71
2022-08-31T10:03:28.105Z,24.77
2022-08-31T10:05:42.893Z,24.86
2022-08-31T10:07:53.419Z,24.98
2022-08-31T10:10:02.135Z,25.10
2022-08-31T10:12:11.672Z,25.18
2022-08-31T10:14:32.424Z,25.21
2022-08-31T10:16:41.431Z,25.29
2022-08-31T10:18:55.689Z,25.34
2022-08-31T10:21:07.724Z,25.39
2022-08-31T10:23:22.213Z,25.42
2022-08-31T10:25:34.672Z,25.56
2022-08-31T10:27:46.519Z,25.65
2022-08-31T10:30:03.016Z,25.65
2022-08-31T10:32:23.026Z,25.58
2022-08-31T10:34:32.139Z,25.58
2022-08-31T10:36:40.038Z,25.65
2022-08-31T10:38:48.370Z,25.66
2022-08-31T10:41:06.359Z,25.66
2022-08-31T10:43:17.913Z,25.64
2022-08-31T10:45:25.719Z,25.63
2022-08-31T10:47:34.185Z,25.59
2022-08-31T10:49:43.436Z,25.57
2022-08-31T10:51:57.409Z,25.54
2022-08-31T10:54:27.445Z,25.48
2022-08-31T10:56:40.269Z,25.44
2022-08-31T10:59:02.966Z,25.42
2022-08-31T11:01:16.903Z,25.47
2022-08-31T11:03:40.468Z,25.55
2022-08-31T11:05:51.540Z,25.55
2022-08-31T11:08:06.123Z,25.56
2022-08-31T11:10:24.604Z,25.55
2022-08-31T11:12:34.711Z,25.49
2022-08-31T11:15:14.353Z,25.50
2022-08-31T11:17:36.270Z,25.55
2022-08-31T11:19:59.924Z,25.59
2022-08-31T11:22:25.648Z,25.61
2022-08-31T11:25:00.983Z,25.63
2022-08-31T11:27:19.099Z,25.62
2022-08-31T11:29:37.761Z,25.62
2022-08-31T11:31:45.307Z,25.60
2022-08-31T11:34:15.014Z,25.54
2022-08-31T11:36:43.240Z,25.54
2022-08-31T11:38:52.126Z,25.52
2022-08-31T11:41:02.081Z,25.54
2022-08-31T11:43:07.459Z,25.59
2022-08-31T11:45:27.971Z,25.64
2022-08-31T11:47:39.579Z,25.68
2022-08-31T11:49:48.973Z,25.74
2022-08-31T11:51:56.661Z,25.73
2022-08-31T11:54:04.307Z,25.70
2022-08-31T11:56:11.941Z,25.65
2022-08-31T11:58:31.559Z,25.59
2022-08-31T12:00:52.218Z,25.53
2022-08-31T12:03:31.487Z,25.53
2022-08-31T12:05:47.942Z,25.63
2022-08-31T12:07:52.970Z,25.71
2022-08-31T12:10:29.310Z,25.74
2022-08-31T12:12:57.622Z,25.69
2022-08-31T12:15:18.338Z,25.67
2022-08-31T12:17:27.946Z,25.69
2022-08-31T12:19:47.151Z,25.69
2022-08-31T12:21:59.226Z,25.65
2022-08-31T12:24:19.013Z,25.59
2022-08-31T12:27:10.562Z,25.50
2022-08-31T12:29:29.693Z,25.41
2022-08-31T12:31:37.318Z,25.42
2022-08-31T12:33:57.046Z,25.42
2022-08-31T12:36:17.669Z,25.42
2022-08-31T12:38:24.533Z,25.44
2022-08-31T12:40:30.565Z,25.47
2022-08-31T12:42:42.290Z,25.51
2022-08-31T12:44:53.181Z,25.51
2022-08-31T12:47:07.210Z,25.46
2022-08-31T12:49:29.363Z,25.42
2022-08-31T12:51:43.332Z,25.41
2022-08-31T12:54:01.499Z,25.32
2022-08-31T12:56:14.488Z,25.23
2022-08-31T12:58:38.131Z,25.18
2022-08-31T13:00:43.535Z,25.10
2022-08-31T13:02:51.422Z,25.03
2022-08-31T13:04:56.741Z,24.98
2022-08-31T13:07:17.968Z,24.94
2022-08-31T13:09:31.068Z,24.87
2022-08-31T13:11:40.940Z,24.84
2022-08-31T13:13:46.256Z,24.83
2022-08-31T13:15:51.687Z,24.80
2022-08-31T13:17:56.790Z,24.77
2022-08-31T13:20:03.077Z,24.75
2022-08-31T13:22:13.184Z,24.72
2022-08-31T13:24:23.783Z,24.67
2022-08-31T13:26:31.469Z,24.62
2022-08-31T13:28:36.179Z,24.59
2022-08-31T13:30:43.581Z,24.55
2022-08-31T13:33:00.231Z,24.49
2022-08-31T13:35:11.201Z,24.45
2022-08-31T13:37:23.719Z,24.40
2022-08-31T13:39:31.734Z,24.36
2022-08-31T13:41:40.779Z,24.33
2022-08-31T13:43:53.248Z,24.30
2022-08-31T13:45:58.333Z,24.27
2022-08-31T13:48:07.357Z,24.23
2022-08-31T13:50:21.666Z,24.17
2022-08-31T13:52:29.168Z,24.11
2022-08-31T13:54:36.128Z,24.07
2022-08-31T13:56:45.471Z,24.03
2022-08-31T13:58:50.424Z,23.98
2022-08-31T14:01:15.238Z,23.97
2022-08-31T14:03:49.669Z,23.96
2022-08-31T14:05:54.343Z,23.92
2022-08-31T14:08:02.569Z,23.91
2022-08-31T14:10:22.132Z,23.87
2022-08-31T14:12:30.500Z,23.82
2022-08-31T14:14:43.091Z,23.79
2022-08-31T14:16:49.100Z,23.76
2022-08-31T14:18:57.489Z,23.72
2022-08-31T14:21:28.631Z,23.70
2022-08-31T14:23:36.747Z,23.66
2022-08-31T14:25:41.625Z,23.62
2022-08-31T14:27:46.473Z,23.58
2022-08-31T14:29:51.385Z,23.54
2022-08-31T14:31:56.567Z,23.48
2022-08-31T14:34:23.362Z,23.42
2022-08-31T14:36:32.334Z,23.38
2022-08-31T14:38:39.974Z,23.35
2022-08-31T14:40:47.774Z,23.32
2022-08-31T14:42:52.831Z,23.29
2022-08-31T14:45:00.863Z,23.24
2022-08-31T14:47:06.234Z,23.22
2022-08-31T14:49:11.392Z,23.19
2022-08-31T14:51:16.227Z,23.16
2022-08-31T14:53:21.136Z,23.17
2022-08-31T14:55:27.535Z,23.16
2022-08-31T14:57:33.731Z,23.14
2022-08-31T14:59:45.015Z,23.15
2022-08-31T15:01:49.934Z,23.12
2022-08-31T15:03:55.237Z,23.09
2022-08-31T15:06:00.073Z,23.07
2022-08-31T15:08:05.381Z,23.04
2022-08-31T15:10:12.057Z,23.03
2022-08-31T15:12:17.080Z,23.01
2022-08-31T15:14:21.916Z,22.98
2022-08-31T15:16:26.947Z,22.96
2022-08-31T15:18:35.498Z,22.93
2022-08-31T15:20:43.394Z,22.85
2022-08-31T15:22:48.441Z,22.81
2022-08-31T15:24:56.152Z,22.70
2022-08-31T15:27:01.114Z,22.57
2022-08-31T15:29:05.862Z,22.41
2022-08-31T15:31:19.763Z,22.27
2022-08-31T15:33:24.588Z,22.13
2022-08-31T15:35:29.572Z,22.06
2022-08-31T15:37:34.555Z,21.98
2022-08-31T15:39:41.420Z,21.89
2022-08-31T15:41:46.192Z,21.81
2022-08-31T15:43:51.829Z,21.74
2022-08-31T15:46:00.474Z,21.68
2022-08-31T15:48:06.149Z,21.57
2022-08-31T15:50:11.336Z,21.50
2022-08-31T15:52:16.279Z,21.45
2022-08-31T15:54:24.933Z,21.38
2022-08-31T15:56:29.948Z,21.32
2022-08-31T15:58:35.949Z,21.23
2022-08-31T16:00:44.312Z,21.16
2022-08-31T16:02:49.340Z,21.06
2022-08-31T16:04:55.920Z,21.00
2022-08-31T16:07:04.517Z,20.94
2022-08-31T16:09:11.125Z,20.87
2022-08-31T16:11:19.218Z,20.79
2022-08-31T16:13:26.894Z,20.74
2022-08-31T16:15:32.959Z,20.70
2022-08-31T16:17:39.036Z,20.69
2022-08-31T16:19:44.022Z,20.68
2022-08-31T16:21:49.597Z,20.69
2022-08-31T16:24:00.477Z,20.68
2022-08-31T16:26:05.717Z,20.64
2022-08-31T16:28:16.711Z,20.59
2022-08-31T16:30:26.186Z,20.52
2022-08-31T16:32:34.021Z,20.44
2022-08-31T16:34:40.823Z,20.35
2022-08-31T16:36:47.396Z,20.29
2022-08-31T16:38:53.397Z,20.23
2022-08-31T16:41:02.512Z,20.16
2022-08-31T16:43:08.895Z,20.07
2022-08-31T16:45:15.480Z,20.01
2022-08-31T16:47:22.867Z,19.95
2022-08-31T16:49:28.105Z,19.89
2022-08-31T16:51:33.739Z,19.84
2022-08-31T16:53:38.569Z,19.79
2022-08-31T16:55:44.883Z,19.74
2022-08-31T16:57:49.683Z,19.70
2022-08-31T16:59:56.081Z,19.66
2022-08-31T17:02:01.996Z,19.61
2022-08-31T17:04:10.028Z,19.57
2022-08-31T17:06:15.220Z,19.52
2022-08-31T17:08:20.225Z,19.50
2022-08-31T17:10:29.002Z,19.47
2022-08-31T17:12:34.069Z,19.44
2022-08-31T17:14:41.872Z,19.42
2022-08-31T17:16:50.572Z,19.41
2022-08-31T17:18:57.088Z,19.38
2022-08-31T17:21:01.920Z,19.39
2022-08-31T17:23:07.576Z,19.41
2022-08-31T17:25:12.553Z,19.41
2022-08-31T17:27:20.381Z,19.41
2022-08-31T17:29:26.227Z,19.41
2022-08-31T17:31:35.920Z,19.37
2022-08-31T17:33:40.757Z,19.31
2022-08-31T17:35:45.807Z,19.25
2022-08-31T17:37:50.708Z,19.19
2022-08-31T17:39:56.869Z,19.14
2022-08-31T17:42:02.267Z,19.10
2022-08-31T17:44:08.248Z,19.07
2022-08-31T17:46:14.240Z,19.05
2022-08-31T17:48:19.236Z,19.03
2022-08-31T17:50:24.410Z,19.02
2022-08-31T17:52:29.568Z,19.04
2022-08-31T17:54:35.548Z,19.05
2022-08-31T17:56:42.402Z,19.07
2022-08-31T17:58:54.769Z,19.06
2022-08-31T18:00:59.763Z,19.08
2022-08-31T18:03:04.613Z,19.09
2022-08-31T18:05:12.065Z,19.11
2022-08-31T18:07:17.109Z,19.12
2022-08-31T18:09:23.930Z,19.15
2022-08-31T18:11:29.645Z,19.14
2022-08-31T18:13:35.590Z,19.14
2022-08-31T18:15:40.523Z,19.15
2022-08-31T18:17:45.271Z,19.13
2022-08-31T18:19:50.388Z,19.09
2022-08-31T18:21:56.252Z,19.05
2022-08-31T18:24:01.114Z,18.99
2022-08-31T18:26:15.979Z,18.94
2022-08-31T18:28:21.007Z,18.87
2022-08-31T18:30:25.986Z,18.81
2022-08-31T18:32:30.947Z,18.76
2022-08-31T18:34:38.280Z,18.73
2022-08-31T18:36:44.118Z,18.69
2022-08-31T18:38:49.207Z,18.66
2022-08-31T18:40:54.342Z,18.64
2022-08-31T18:42:59.277Z,18.61
2022-08-31T18:45:04.609Z,18.60
2022-08-31T18:47:11.553Z,18.56
2022-08-31T18:49:16.507Z,18.53
2022-08-31T18:51:21.289Z,18.51
2022-08-31T18:53:28.393Z,18.51
2022-08-31T18:55:35.755Z,18.51
2022-08-31T18:57:42.799Z,18.49
2022-08-31T18:59:54.859Z,18.48
2022-08-31T19:02:00.080Z,18.46
2022-08-31T19:04:06.442Z,18.48
2022-08-31T19:06:18.518Z,18.50
2022-08-31T19:08:23.704Z,18.51
2022-08-31T19:10:28.913Z,18.54
2022-08-31T19:12:34.100Z,18.56
2022-08-31T19:14:40.605Z,18.57
2022-08-31T19:16:47.127Z,18.58
2022-08-31T19:18:59.451Z,18.58
2022-08-31T19:21:14.587Z,18.57
2022-08-31T19:23:20.333Z,18.55
2022-08-31T19:25:26.020Z,18.52
2022-08-31T19:27:31.288Z,18.52
2022-08-31T19:29:36.452Z,18.52
2022-08-31T19:31:43.938Z,18.52
2022-08-31T19:33:56.042Z,18.52
2022-08-31T19:36:04.662Z,18.52
2022-08-31T19:38:09.761Z,18.52
2022-08-31T19:40:15.466Z,18.52
2022-08-31T19:42:20.710Z,18.53
2022-08-31T19:44:26.159Z,18.53
2022-08-31T19:46:32.058Z,18.55
2022-08-31T19:48:44.021Z,18.57
2022-08-31T19:50:49.770Z,18.60
2022-08-31T19:52:55.327Z,18.61
2022-08-31T19:55:00.722Z,18.64
2022-08-31T19:57:06.338Z,18.67
2022-08-31T19:59:16.246Z,18.70
2022-08-31T20:01:23.989Z,18.72
2022-08-31T20:03:29.108Z,18.74
2022-08-31T20:05:40.093Z,18.75
2022-08-31T20:07:45.255Z,18.73
2022-08-31T20:09:50.845Z,18.74
2022-08-31T20:11:56.407Z,18.75
2022-08-31T20:14:01.241Z,18.77
2022-08-31T20:16:11.831Z,18.77
2022-08-31T20:18:16.786Z,18.79
2022-08-31T20:20:22.125Z,18.80
2022-08-31T20:22:28.099Z,18.81
2022-08-31T20:24:43.858Z,18.82
2022-08-31T20:26:51.916Z,18.83
2022-08-31T20:29:00.368Z,18.84
2022-08-31T20:31:10.583Z,18.85
2022-08-31T20:33:15.610Z,18.87
2022-08-31T20:35:20.545Z,18.88
2022-08-31T20:37:25.344Z,18.88
2022-08-31T20:39:33.449Z,18.89
2022-08-31T20:41:41.079Z,18.90
2022-08-31T20:43:45.845Z,18.91
2022-08-31T20:45:53.538Z,18.93
2022-08-31T20:47:58.320Z,18.94
2022-08-31T20:50:04.954Z,18.95
2022-08-31T20:52:11.323Z,18.94
2022-08-31T20:54:16.241Z,18.93
2022-08-31T20:56:21.012Z,18.93
2022-08-31T20:58:25.740Z,18.94
2022-08-31T21:00:30.472Z,18.93
2022-08-31T21:02:36.063Z,18.94
2022-08-31T21:04:45.768Z,18.93
2022-08-31T21:06:50.830Z,18.93
2022-08-31T21:08:56.770Z,18.93
2022-08-31T21:11:09.069Z,18.93
2022-08-31T21:13:13.909Z,18.93
2022-08-31T21:15:19.066Z,18.92
2022-08-31T21:17:23.922Z,18.92
2022-08-31T21:19:28.672Z,18.92
2022-08-31T21:21:33.515Z,18.91
2022-08-31T21:23:39.007Z,18.89
2022-08-31T21:25:46.064Z,18.89
2022-08-31T21:27:50.947Z,18.87
2022-08-31T21:29:55.659Z,18.87
2022-08-31T21:32:03.847Z,18.85
2022-08-31T21:34:10.335Z,18.84
2022-08-31T21:36:16.244Z,18.83
2022-08-31T21:38:21.039Z,18.78
2022-08-31T21:40:25.905Z,18.71
2022-08-31T21:42:30.840Z,18.62
2022-08-31T21:44:38.389Z,18.53
2022-08-31T21:46:48.429Z,18.44
2022-08-31T21:48:57.899Z,18.36
2022-08-31T21:51:13.176Z,18.33
2022-08-31T21:53:17.951Z,18.29
2022-08-31T21:55:22.855Z,18.27
2022-08-31T21:57:27.622Z,18.24
2022-08-31T21:59:34.848Z,18.23
2022-08-31T22:01:40.123Z,18.24
2022-08-31T22:03:45.614Z,18.25
2022-08-31T22:05:50.705Z,18.25
2022-08-31T22:07:55.445Z,18.25
2022-08-31T22:10:00.199Z,18.27
2022-08-31T22:12:06.899Z,18.29
2022-08-31T22:14:13.465Z,18.31
2022-08-31T22:16:19.817Z,18.33
2022-08-31T22:20:49.885Z,18.34
2022-08-31T22:22:55.098Z,18.34
2022-08-31T22:24:59.852Z,18.34
2022-08-31T22:27:08.234Z,18.35
2022-08-31T22:29:15.474Z,18.35
2022-08-31T22:31:21.681Z,18.35
2022-08-31T22:33:26.678Z,18.36
2022-08-31T22:35:31.495Z,18.37
2022-08-31T22:37:36.239Z,18.37
2022-08-31T22:39:41.272Z,18.38
2022-08-31T22:41:46.357Z,18.38
2022-08-31T22:43:51.154Z,18.37
2022-08-31T22:45:55.995Z,18.38
2022-08-31T22:48:00.759Z,18.38
2022-08-31T22:50:06.617Z,18.38
2022-08-31T22:52:16.636Z,18.38
2022-08-31T22:54:23.474Z,18.38
2022-08-31T22:56:31.835Z,18.38
2022-08-31T22:58:36.637Z,18.38
2022-08-31T23:00:41.702Z,18.38
2022-08-31T23:02:46.441Z,18.38
2022-08-31T23:04:51.646Z,18.40
2022-08-31T23:06:57.047Z,18.40
2022-08-31T23:09:03.503Z,18.40
2022-08-31T23:11:08.335Z,18.39
2022-08-31T23:13:13.079Z,18.38
2022-08-31T23:15:17.879Z,18.37
2022-08-31T23:17:22.811Z,18.37
2022-08-31T23:19:30.341Z,18.37
2022-08-31T23:21:35.810Z,18.37
2022-08-31T23:23:40.564Z,18.38
2022-08-31T23:25:45.299Z,18.37
2022-08-31T23:27:50.992Z,18.38
2022-08-31T23:29:56.815Z,18.37
2022-08-31T23:32:01.820Z,18.38
2022-08-31T23:34:08.963Z,18.39
2022-08-31T23:36:14.000Z,18.39
2022-08-31T23:38:20.044Z,18.39
2022-08-31T23:40:25.039Z,18.39
2022-08-31T23:42:29.886Z,18.39
2022-08-31T23:44:34.845Z,18.38
2022-08-31T23:46:40.945Z,18.35
2022-08-31T23:48:45.814Z,18.32
2022-08-31T23:50:50.655Z,18.29
2022-08-31T23:52:55.522Z,18.28
2022-08-31T23:55:00.390Z,18.29
2022-08-31T23:57:05.445Z,18.27
2022-08-31T23:59:13.955Z,18.26
